Time;durP1;ratioP1;P1;durP2;ratioP2;P2;SDS_P1;SDS_P2;PMS_P1;PMS_P2;Temp;Humidity;BMP_temperature;BMP_pressure;BME280_temperature;BME280_humidity;BME280_pressure;Samples;Min_cycle;Max_cycle;Signal;HPM_P1;HPM_P2
2022/04/12 00:01:13;;;;;;;5.53;1.98;;;1.70;65.00;;;;;;4110603;28;20130;-80
2022/04/12 00:03:14;;;;;;;6.68;1.73;;;1.70;65.10;;;;;;4092119;29;20028;-80
2022/04/12 00:05:15;;;;;;;3.65;1.75;;;1.60;64.90;;;;;;4095606;29;20130;-79
2022/04/12 00:07:16;;;;;;;4.43;1.70;;;1.60;65.00;;;;;;4095762;29;20027;-80
2022/04/12 00:09:17;;;;;;;6.93;1.83;;;1.60;64.90;;;;;;4095654;28;20090;-80
2022/04/12 00:11:17;;;;;;;5.97;1.40;;;1.60;64.90;;;;;;4095102;28;20027;-81
2022/04/12 00:13:18;;;;;;;5.03;1.77;;;1.60;64.90;;;;;;4092572;28;20315;-80
2022/04/12 00:15:19;;;;;;;5.82;1.55;;;1.70;65.10;;;;;;4095837;29;20023;-79
2022/04/12 00:19:38;;;;;;;5.47;1.65;;;1.50;65.10;;;;;;4092091;29;20213;-79
2022/04/12 00:21:39;;;;;;;3.58;1.48;;;1.50;65.10;;;;;;4095016;28;20103;-80
2022/04/12 00:23:40;;;;;;;3.75;1.65;;;1.50;65.00;;;;;;4095153;29;20039;-80
2022/04/12 00:25:45;;;;;;;5.43;1.90;;;1.40;65.10;;;;;;4092265;29;20031;-79
2022/04/12 00:27:45;;;;;;;10.98;2.25;;;1.40;65.30;;;;;;4093995;28;20023;-80
2022/04/12 00:29:46;;;;;;;10.18;2.38;;;1.40;65.20;;;;;;4095618;29;20114;-79
2022/04/12 00:31:47;;;;;;;4.93;2.03;;;1.40;65.20;;;;;;4093200;28;20058;-80
2022/04/12 00:33:47;;;;;;;4.63;2.10;;;1.30;65.30;;;;;;4092826;28;20178;-81
2022/04/12 00:35:48;;;;;;;5.53;1.77;;;1.30;65.40;;;;;;4092787;29;20051;-81
2022/04/12 00:37:52;;;;;;;9.73;2.10;;;1.30;65.50;;;;;;4109924;28;20038;-81
2022/04/12 00:39:54;;;;;;;9.77;2.17;;;1.30;65.50;;;;;;4095084;28;20110;-81
2022/04/12 00:41:54;;;;;;;3.58;1.70;;;1.30;65.70;;;;;;4094809;28;20054;-79
2022/04/12 00:43:55;;;;;;;6.75;1.90;;;1.30;65.80;;;;;;4101878;28;20026;-81
2022/04/12 00:46:00;;;;;;;6.53;1.70;;;1.20;65.80;;;;;;4098731;28;20549;-81
2022/04/12 00:48:01;;;;;;;4.78;2.08;;;1.20;65.90;;;;;;4094859;29;20085;-79
2022/04/12 00:50:04;;;;;;;7.43;1.85;;;1.20;66.00;;;;;;4094091;28;20039;-80
2022/04/12 00:52:06;;;;;;;6.55;1.85;;;1.20;66.00;;;;;;4095342;29;20059;-80
2022/04/12 00:54:07;;;;;;;5.93;1.65;;;1.20;66.00;;;;;;4092313;29;20030;-81
2022/04/12 00:56:08;;;;;;;5.25;2.03;;;1.20;66.10;;;;;;4097511;29;20035;-80
2022/04/12 00:58:09;;;;;;;2.70;1.70;;;1.10;66.00;;;;;;4095915;29;20031;-80
2022/04/12 01:00:11;;;;;;;3.67;1.52;;;1.10;66.10;;;;;;4096783;28;20036;-81
2022/04/12 01:02:12;;;;;;;7.07;2.20;;;1.10;66.20;;;;;;4097612;29;20059;-82
2022/04/12 01:04:13;;;;;;;5.53;1.80;;;1.10;66.20;;;;;;4095743;29;20050;-81
2022/04/12 01:06:14;;;;;;;3.85;1.83;;;1.10;66.20;;;;;;4097228;29;20035;-80
2022/04/12 01:08:14;;;;;;;6.47;2.33;;;1.10;66.30;;;;;;4110625;28;20491;-79
2022/04/12 01:10:15;;;;;;;3.72;1.98;;;1.00;66.40;;;;;;4080290;29;20028;-82
2022/04/12 01:12:18;;;;;;;4.32;1.75;;;1.00;66.50;;;;;;4092508;29;20161;-81
2022/04/12 01:14:19;;;;;;;7.38;1.77;;;1.00;66.40;;;;;;4094973;28;20027;-81
2022/04/12 01:16:20;;;;;;;6.43;1.63;;;1.00;66.40;;;;;;4096128;28;20030;-80
2022/04/12 01:18:21;;;;;;;5.30;2.00;;;1.00;66.20;;;;;;4096941;29;20087;-80
2022/04/12 01:20:24;;;;;;;7.53;1.80;;;1.00;66.40;;;;;;4111137;28;20114;-81
2022/04/12 01:22:26;;;;;;;11.50;3.25;;;0.90;66.30;;;;;;4096505;28;20035;-80
2022/04/12 01:24:28;;;;;;;4.90;1.85;;;0.90;66.40;;;;;;4102718;28;20448;-79
2022/04/12 01:26:29;;;;;;;6.20;1.92;;;0.90;66.40;;;;;;4094505;28;20046;-82
2022/04/12 01:28:29;;;;;;;3.60;1.70;;;0.90;66.50;;;;;;4093642;29;20035;-81
2022/04/12 01:30:30;;;;;;;7.82;1.92;;;0.80;66.50;;;;;;4097158;28;20162;-81
2022/04/12 01:32:31;;;;;;;5.28;2.10;;;0.80;66.60;;;;;;4097354;29;20033;-81
2022/04/12 01:34:31;;;;;;;3.90;1.67;;;0.80;66.60;;;;;;4095879;29;20031;-80
2022/04/12 01:36:32;;;;;;;7.38;1.88;;;0.80;66.70;;;;;;4111072;28;20061;-80
2022/04/12 01:38:32;;;;;;;5.88;2.08;;;0.80;66.70;;;;;;4097096;28;20031;-80
2022/04/12 01:40:33;;;;;;;6.35;2.05;;;0.70;66.70;;;;;;4097227;28;20038;-81
2022/04/12 01:42:34;;;;;;;5.43;2.05;;;0.70;66.70;;;;;;4097664;29;20038;-80
2022/04/12 01:44:34;;;;;;;5.03;1.73;;;0.70;66.70;;;;;;4099722;29;20035;-79
2022/04/12 01:46:35;;;;;;;3.63;1.58;;;0.70;66.80;;;;;;4100314;29;20114;-81
2022/04/12 01:48:36;;;;;;;8.77;1.88;;;0.70;66.90;;;;;;4097716;29;20035;-81
2022/04/12 01:50:37;;;;;;;4.97;2.38;;;0.70;66.90;;;;;;4091892;28;20024;-79
2022/04/12 01:52:37;;;;;;;3.83;1.65;;;0.70;66.90;;;;;;4092786;29;20730;-81
2022/04/12 01:54:38;;;;;;;5.18;1.70;;;0.60;66.80;;;;;;4094568;28;20023;-80
2022/04/12 01:56:39;;;;;;;5.30;1.92;;;0.60;67.00;;;;;;4094027;29;20023;-78
2022/04/12 01:58:42;;;;;;;6.07;2.20;;;0.60;67.00;;;;;;4094106;29;20408;-80
2022/04/12 02:00:43;;;;;;;8.02;2.05;;;0.60;67.10;;;;;;4093092;28;20117;-80
2022/04/12 02:02:43;;;;;;;3.45;1.65;;;0.60;67.10;;;;;;4093916;28;20019;-80
2022/04/12 02:04:44;;;;;;;6.03;1.92;;;0.60;67.10;;;;;;4092954;29;20310;-80
2022/04/12 02:06:45;;;;;;;8.07;1.73;;;0.60;67.20;;;;;;4094107;29;20155;-79
2022/04/12 02:08:45;;;;;;;6.03;2.15;;;0.60;67.20;;;;;;4092727;29;20024;-79
2022/04/12 02:10:46;;;;;;;3.28;1.63;;;0.50;67.10;;;;;;4092132;28;20046;-80
2022/04/12 02:12:47;;;;;;;8.60;1.88;;;0.50;67.10;;;;;;4092663;29;20034;-80
2022/04/12 02:14:49;;;;;;;8.77;2.47;;;0.50;67.10;;;;;;4094008;29;20019;-81
2022/04/12 02:16:50;;;;;;;13.70;2.22;;;0.50;67.20;;;;;;4092828;28;20031;-79
2022/04/12 02:18:51;;;;;;;4.03;1.60;;;0.50;67.30;;;;;;4092628;28;20550;-80
2022/04/12 02:20:51;;;;;;;3.60;1.80;;;0.40;67.30;;;;;;4093929;28;20042;-81
2022/04/12 02:22:52;;;;;;;4.18;1.70;;;0.50;67.40;;;;;;4093967;29;20113;-80
2022/04/12 02:24:52;;;;;;;3.60;1.80;;;0.50;67.50;;;;;;4092124;29;20146;-80
2022/04/12 02:26:53;;;;;;;6.80;2.20;;;0.50;67.60;;;;;;4077033;29;20126;-81
2022/04/12 02:28:54;;;;;;;3.15;1.80;;;0.50;67.60;;;;;;4091980;29;20042;-80
2022/04/12 02:30:55;;;;;;;4.40;2.17;;;0.50;67.70;;;;;;4092983;28;20029;-78
2022/04/12 02:32:55;;;;;;;6.47;2.10;;;0.40;67.60;;;;;;4094078;29;20030;-81
2022/04/12 02:35:00;;;;;;;5.43;1.95;;;0.40;67.60;;;;;;4092314;29;20039;-80
2022/04/12 02:37:01;;;;;;;3.67;1.92;;;0.40;67.80;;;;;;4094143;28;20082;-79
2022/04/12 02:39:03;;;;;;;3.75;1.80;;;0.50;67.90;;;;;;4107274;28;20165;-80
2022/04/12 02:41:04;;;;;;;5.22;1.88;;;0.40;67.80;;;;;;4091503;29;20050;-81
2022/04/12 02:43:04;;;;;;;4.63;1.60;;;0.40;68.00;;;;;;4105691;28;20027;-80
2022/04/12 02:45:06;;;;;;;7.60;2.38;;;0.40;67.80;;;;;;4107456;28;20031;-80
2022/04/12 02:47:07;;;;;;;7.45;2.10;;;0.40;67.70;;;;;;4093341;28;20027;-80
2022/04/12 02:49:07;;;;;;;6.10;2.08;;;0.40;68.40;;;;;;4093353;28;20054;-80
2022/04/12 02:51:08;;;;;;;5.55;2.10;;;0.50;67.80;;;;;;4091708;28;20415;-79
2022/04/12 02:53:08;;;;;;;6.47;2.17;;;0.40;67.90;;;;;;4107147;28;20041;-81
2022/04/12 02:55:09;;;;;;;7.15;2.25;;;0.40;68.00;;;;;;4093632;28;20035;-79
2022/04/12 02:57:10;;;;;;;6.60;1.88;;;0.40;68.00;;;;;;4094332;29;20178;-80
2022/04/12 02:59:10;;;;;;;4.50;1.98;;;0.40;68.10;;;;;;4081974;28;20598;-79
2022/04/12 03:01:11;;;;;;;8.75;2.38;;;0.40;68.20;;;;;;4090259;28;20026;-79
2022/04/12 03:03:12;;;;;;;6.30;2.15;;;0.40;68.20;;;;;;4095725;28;20558;-80
2022/04/12 03:05:12;;;;;;;7.47;2.30;;;0.40;68.30;;;;;;4097455;29;20115;-80
2022/04/12 03:07:14;;;;;;;3.72;1.90;;;0.40;68.30;;;;;;4080727;28;20043;-80
2022/04/12 03:09:15;;;;;;;4.53;2.10;;;0.50;68.40;;;;;;4095544;29;20061;-79
2022/04/12 03:11:15;;;;;;;6.25;2.17;;;0.40;68.30;;;;;;4097452;28;20390;-80
2022/04/12 03:13:16;;;;;;;5.75;1.83;;;0.40;68.40;;;;;;4096241;29;20035;-79
2022/04/12 03:15:17;;;;;;;8.82;1.85;;;0.30;68.30;;;;;;4097859;29;20130;-80
2022/04/12 03:17:18;;;;;;;7.25;2.08;;;0.40;68.40;;;;;;4096209;28;20059;-80
2022/04/12 03:19:19;;;;;;;7.32;1.95;;;0.50;68.50;;;;;;4094567;28;20119;-80
2022/04/12 03:21:19;;;;;;;15.63;2.63;;;0.30;68.50;;;;;;4097344;28;20035;-79
2022/04/12 03:23:20;;;;;;;7.00;2.35;;;0.40;68.60;;;;;;4094029;28;20035;-79
2022/04/12 03:25:21;;;;;;;4.35;1.90;;;0.40;68.70;;;;;;4094687;28;20019;-80
2022/04/12 03:27:21;;;;;;;11.20;2.20;;;0.40;69.40;;;;;;4096789;29;20046;-81
2022/04/12 03:29:22;;;;;;;5.47;2.17;;;0.30;68.60;;;;;;4095666;29;20500;-79
2022/04/12 03:31:23;;;;;;;8.90;2.38;;;0.40;68.70;;;;;;4094018;28;20032;-81
2022/04/12 03:33:24;;;;;;;8.52;2.20;;;0.40;68.80;;;;;;4094542;29;20031;-80
2022/04/12 03:35:24;;;;;;;3.35;1.83;;;0.40;68.80;;;;;;4097066;29;20019;-79
2022/04/12 03:37:25;;;;;;;7.18;2.33;;;0.40;68.90;;;;;;4095470;29;20028;-80
2022/04/12 03:39:26;;;;;;;7.47;1.90;;;0.40;69.00;;;;;;4093863;29;20032;-80
2022/04/12 03:41:27;;;;;;;6.88;2.60;;;0.40;69.00;;;;;;4095892;28;20028;-79
2022/04/12 03:43:27;;;;;;;7.03;2.28;;;0.40;69.00;;;;;;4096314;29;20037;-80
2022/04/12 03:45:28;;;;;;;6.15;2.28;;;0.40;69.00;;;;;;4095905;29;20102;-80
2022/04/12 03:47:29;;;;;;;6.65;2.55;;;0.40;69.10;;;;;;4085826;28;20058;-79
2022/04/12 03:49:30;;;;;;;6.75;2.20;;;0.40;69.20;;;;;;4111162;28;20458;-80
2022/04/12 03:51:30;;;;;;;5.72;2.03;;;0.40;69.30;;;;;;4095532;28;20448;-80
2022/04/12 03:53:31;;;;;;;5.53;2.35;;;0.50;69.40;;;;;;4096101;29;20078;-80
2022/04/12 03:55:34;;;;;;;5.13;2.50;;;0.50;69.50;;;;;;4094277;29;20027;-79
2022/04/12 03:57:35;;;;;;;6.75;2.65;;;0.40;69.50;;;;;;4110599;28;20447;-80
2022/04/12 03:59:36;;;;;;;8.43;2.40;;;0.50;69.70;;;;;;4096392;28;20086;-81
2022/04/12 04:01:37;;;;;;;5.70;2.28;;;0.60;69.80;;;;;;4095666;28;20031;-80
2022/04/12 04:03:37;;;;;;;6.88;2.53;;;0.50;69.70;;;;;;4096484;29;20071;-81
2022/04/12 04:05:38;;;;;;;6.38;2.70;;;0.50;69.80;;;;;;4092791;29;20372;-78
2022/04/12 04:07:39;;;;;;;3.85;2.13;;;0.50;69.80;;;;;;4095264;29;20023;-81
2022/04/12 04:09:39;;;;;;;8.68;2.50;;;0.50;69.90;;;;;;4111569;28;20019;-80
2022/04/12 04:11:40;;;;;;;6.85;2.40;;;0.50;70.00;;;;;;4096280;28;20020;-80
2022/04/12 04:13:41;;;;;;;7.25;2.60;;;0.60;70.00;;;;;;4095522;28;20031;-80
2022/04/12 04:15:41;;;;;;;8.82;2.70;;;0.60;70.10;;;;;;4093725;29;20062;-80
2022/04/12 04:17:43;;;;;;;4.55;2.22;;;0.60;70.20;;;;;;4096207;29;20035;-81
2022/04/12 04:19:44;;;;;;;6.55;2.35;;;0.60;70.20;;;;;;4096214;29;20369;-81
2022/04/12 04:21:44;;;;;;;8.25;2.83;;;0.60;70.30;;;;;;4095019;28;20027;-80
2022/04/12 04:23:45;;;;;;;8.57;2.58;;;0.60;70.30;;;;;;4093409;29;20099;-80
2022/04/12 04:25:46;;;;;;;6.72;2.35;;;0.60;70.40;;;;;;4092057;29;20227;-81
2022/04/12 04:27:46;;;;;;;8.32;2.33;;;0.70;70.60;;;;;;4095216;29;20031;-79
2022/04/12 04:29:47;;;;;;;8.65;2.53;;;0.60;70.60;;;;;;4094958;29;20031;-81
2022/04/12 04:31:48;;;;;;;4.95;2.25;;;0.70;70.70;;;;;;4093606;28;20031;-79
2022/04/12 04:33:48;;;;;;;4.68;2.60;;;0.70;70.70;;;;;;4094688;29;20046;-80
2022/04/12 04:35:51;;;;;;;10.18;2.47;;;0.70;70.80;;;;;;4095965;29;20042;-80
2022/04/12 04:37:51;;;;;;;9.73;3.10;;;0.70;70.90;;;;;;4110567;28;20569;-79
2022/04/12 04:39:52;;;;;;;8.18;2.65;;;0.70;71.00;;;;;;4096105;28;20039;-80
2022/04/12 04:41:53;;;;;;;4.63;2.50;;;0.80;71.20;;;;;;4095470;28;20152;-81
2022/04/12 04:43:53;;;;;;;12.95;2.30;;;0.80;72.00;;;;;;4095798;29;20521;-82
2022/04/12 04:45:54;;;;;;;10.32;2.80;;;0.80;71.40;;;;;;4097973;29;20027;-82
2022/04/12 04:47:57;;;;;;;5.60;2.17;;;0.80;71.50;;;;;;4094788;29;20169;-79
2022/04/12 04:49:58;;;;;;;13.18;2.63;;;0.90;71.70;;;;;;4097591;28;20031;-81
2022/04/12 04:51:58;;;;;;;6.70;2.25;;;0.90;71.70;;;;;;4096460;28;20424;-81
2022/04/12 04:53:59;;;;;;;4.85;2.28;;;0.90;71.80;;;;;;4112016;28;20088;-79
2022/04/12 04:56:00;;;;;;;6.55;2.10;;;1.00;72.10;;;;;;4110656;28;20027;-81
2022/04/12 04:58:01;;;;;;;5.95;2.35;;;1.00;72.30;;;;;;4097946;28;20332;-81
2022/04/12 05:00:04;;;;;;;7.60;2.30;;;1.10;72.40;;;;;;4111515;28;20193;-82
2022/04/12 05:02:05;;;;;;;9.45;2.33;;;1.10;72.50;;;;;;4098211;29;20121;-82
2022/04/12 05:04:05;;;;;;;6.22;2.20;;;1.10;72.60;;;;;;4096693;29;20050;-79
2022/04/12 05:06:06;;;;;;;10.35;2.00;;;1.20;72.60;;;;;;4095033;29;20042;-81
2022/04/12 05:08:07;;;;;;;9.95;2.88;;;1.20;72.70;;;;;;4110239;28;20015;-81
2022/04/12 05:10:11;;;;;;;5.75;1.95;;;1.30;72.90;;;;;;4110281;28;20109;-81
2022/04/12 05:12:12;;;;;;;7.75;2.40;;;1.30;72.90;;;;;;4097687;29;20110;-80
2022/04/12 05:14:13;;;;;;;4.70;1.73;;;1.30;72.90;;;;;;4111558;28;20035;-82
2022/04/12 05:16:14;;;;;;;7.00;2.20;;;1.40;73.10;;;;;;4096996;29;20027;-82
2022/04/12 05:18:14;;;;;;;6.35;2.08;;;1.40;73.20;;;;;;4096946;28;20058;-79
2022/04/12 05:20:15;;;;;;;6.47;2.03;;;1.40;73.20;;;;;;4097026;28;20071;-80
2022/04/12 05:22:15;;;;;;;9.95;1.83;;;1.50;73.40;;;;;;4098176;29;20686;-81
2022/04/12 05:24:16;;;;;;;5.45;1.75;;;1.50;73.40;;;;;;4095646;28;20511;-82
2022/04/12 05:26:17;;;;;;;7.78;2.15;;;1.60;73.80;;;;;;4096727;28;20045;-79
2022/04/12 05:28:17;;;;;;;7.18;1.83;;;1.60;73.70;;;;;;4095034;28;20499;-81
2022/04/12 05:30:19;;;;;;;9.02;2.60;;;1.70;73.80;;;;;;4096181;28;20050;-81
2022/04/12 05:32:19;;;;;;;9.07;1.98;;;1.70;73.90;;;;;;4095511;29;20051;-80
2022/04/12 05:34:20;;;;;;;8.70;2.10;;;1.80;74.00;;;;;;4112170;28;20035;-81
2022/04/12 05:36:20;;;;;;;7.90;2.17;;;1.80;73.80;;;;;;4097725;28;20078;-81
2022/04/12 05:38:21;;;;;;;10.80;1.77;;;1.80;74.20;;;;;;4097716;29;20027;-82
2022/04/12 05:40:22;;;;;;;7.97;2.05;;;1.90;74.30;;;;;;4094083;28;20035;-79
2022/04/12 05:42:23;;;;;;;12.80;2.00;;;2.00;74.30;;;;;;4111169;28;20457;-80
2022/04/12 05:44:24;;;;;;;7.88;1.48;;;2.10;74.40;;;;;;4097522;28;20576;-80
2022/04/12 05:46:25;;;;;;;7.03;1.60;;;2.10;74.60;;;;;;4095631;29;20035;-81
2022/04/12 05:48:25;;;;;;;5.53;1.50;;;2.10;74.60;;;;;;4110688;28;20053;-82
2022/04/12 05:50:27;;;;;;;7.15;1.45;;;2.20;74.70;;;;;;4096892;28;20515;-81
2022/04/12 05:52:28;;;;;;;9.15;1.58;;;2.30;75.00;;;;;;4096092;28;20119;-81
2022/04/12 05:54:28;;;;;;;8.82;1.70;;;2.40;75.10;;;;;;4097701;29;20027;-80
2022/04/12 05:56:29;;;;;;;13.95;2.30;;;2.50;76.40;;;;;;4097527;29;20031;-82
2022/04/12 05:58:32;;;;;;;12.82;1.90;;;2.60;76.20;;;;;;4085974;29;20098;-82
2022/04/12 06:00:34;;;;;;;6.97;1.70;;;2.60;76.10;;;;;;4110065;28;20476;-81
2022/04/12 06:02:35;;;;;;;4.43;1.33;;;2.80;76.40;;;;;;4097575;28;20476;-80
2022/04/12 06:04:35;;;;;;;5.13;1.67;;;2.90;76.40;;;;;;4098735;29;20058;-82
2022/04/12 06:06:36;;;;;;;5.68;1.42;;;3.00;76.60;;;;;;4096653;29;20027;-81
2022/04/12 06:08:37;;;;;;;7.32;1.55;;;3.10;76.70;;;;;;4112516;28;20033;-81
2022/04/12 06:10:38;;;;;;;7.40;2.15;;;3.20;76.70;;;;;;4114176;28;20019;-82
2022/04/12 06:12:39;;;;;;;9.38;1.92;;;3.30;79.10;;;;;;4098507;28;20357;-82
2022/04/12 06:14:39;;;;;;;4.50;1.77;;;3.50;78.90;;;;;;4098288;29;20072;-81
2022/04/12 06:16:40;;;;;;;7.15;1.70;;;3.50;79.10;;;;;;4099471;29;20130;-81
2022/04/12 06:18:40;;;;;;;5.60;1.88;;;3.60;78.50;;;;;;4100713;29;20045;-82
2022/04/12 06:20:42;;;;;;;3.95;1.48;;;3.70;78.20;;;;;;4085544;28;20122;-81
2022/04/12 06:22:43;;;;;;;7.32;1.35;;;3.80;77.60;;;;;;4086334;29;20031;-80
2022/04/12 06:24:44;;;;;;;5.38;1.25;;;3.90;76.70;;;;;;4094843;28;20042;-82
2022/04/12 06:26:45;;;;;;;6.57;1.50;;;4.10;76.10;;;;;;4097774;28;20031;-82
2022/04/12 06:28:45;;;;;;;7.68;1.65;;;4.10;75.80;;;;;;4110924;28;20496;-81
2022/04/12 06:30:48;;;;;;;7.05;1.77;;;4.30;75.80;;;;;;4098527;28;20027;-82
2022/04/12 06:32:49;;;;;;;12.80;1.60;;;4.20;75.30;;;;;;4115538;28;20058;-81
2022/04/12 06:34:50;;;;;;;4.15;1.20;;;4.30;74.60;;;;;;4101241;28;20031;-82
2022/04/12 06:36:50;;;;;;;7.60;1.63;;;4.40;74.30;;;;;;4102780;29;20502;-81
2022/04/12 06:38:53;;;;;;;5.25;1.58;;;4.40;73.80;;;;;;4098510;28;20042;-81
2022/04/12 06:40:53;;;;;;;8.60;1.55;;;4.50;73.50;;;;;;4111110;28;20074;-80
2022/04/12 06:42:54;;;;;;;5.95;1.25;;;4.50;73.30;;;;;;4097573;29;20081;-82
2022/04/12 06:44:55;;;;;;;4.05;1.13;;;4.60;73.70;;;;;;4098245;29;20046;-82
2022/04/12 06:46:55;;;;;;;4.63;1.30;;;4.60;72.80;;;;;;4097020;29;20128;-81
2022/04/12 06:48:56;;;;;;;6.85;1.05;;;4.70;72.40;;;;;;4096655;29;20031;-81
2022/04/12 06:50:56;;;;;;;12.60;1.40;;;4.80;72.30;;;;;;4095644;28;20577;-82
2022/04/12 06:52:58;;;;;;;6.70;1.40;;;4.80;72.00;;;;;;4098176;29;20031;-82
2022/04/12 06:54:59;;;;;;;8.10;1.35;;;4.90;71.80;;;;;;4097810;29;20054;-82
2022/04/12 06:57:00;;;;;;;6.43;1.17;;;4.90;71.70;;;;;;4097272;29;20042;-82
2022/04/12 06:59:00;;;;;;;4.60;1.08;;;5.00;71.60;;;;;;4098430;29;20043;-82
2022/04/12 07:01:01;;;;;;;8.60;1.20;;;5.10;71.40;;;;;;4097874;28;20043;-80
2022/04/12 07:03:02;;;;;;;6.65;1.55;;;5.10;71.10;;;;;;4097445;29;20031;-82
2022/04/12 07:05:07;;;;;;;5.95;1.40;;;5.10;70.80;;;;;;4095188;29;20058;-83
2022/04/12 07:07:07;;;;;;;6.25;1.20;;;5.10;70.40;;;;;;4098052;29;20090;-82
2022/04/12 07:09:11;;;;;;;7.13;1.15;;;5.20;70.40;;;;;;4095542;29;20031;-82
2022/04/12 07:11:11;;;;;;;4.70;1.45;;;5.20;70.00;;;;;;4095447;28;20396;-82
2022/04/12 07:13:12;;;;;;;2.63;1.00;;;5.30;69.90;;;;;;4096105;29;20038;-82
2022/04/12 07:15:14;;;;;;;5.35;1.25;;;5.30;69.80;;;;;;4096774;28;20280;-83
2022/04/12 07:17:15;;;;;;;9.33;1.57;;;5.50;69.80;;;;;;4097030;29;20031;-82
2022/04/12 07:19:16;;;;;;;4.80;1.10;;;5.40;69.50;;;;;;4096332;29;20042;-82
2022/04/12 07:21:21;;;;;;;5.97;1.85;;;5.50;69.40;;;;;;4097601;28;20059;-83
2022/04/12 07:23:21;;;;;;;4.40;1.30;;;5.50;69.30;;;;;;4077962;29;20067;-83
2022/04/12 07:25:22;;;;;;;5.97;1.17;;;5.60;69.20;;;;;;4094532;28;20094;-82
2022/04/12 07:27:23;;;;;;;7.53;1.35;;;5.60;68.90;;;;;;4095976;28;20039;-82
2022/04/12 07:29:23;;;;;;;9.45;1.90;;;5.70;69.00;;;;;;4096785;29;20323;-82
2022/04/12 07:31:25;;;;;;;11.30;1.95;;;5.70;68.90;;;;;;4095150;28;20102;-82
2022/04/12 07:33:25;;;;;;;4.90;1.70;;;5.80;68.60;;;;;;4093856;29;20036;-83
2022/04/12 07:35:27;;;;;;;9.52;1.48;;;5.80;68.40;;;;;;4088625;29;20098;-82
2022/04/12 07:37:28;;;;;;;6.47;1.77;;;5.90;68.50;;;;;;4087005;28;20613;-82
2022/04/12 07:39:28;;;;;;;7.47;1.27;;;5.90;68.30;;;;;;4089704;28;20020;-83
2022/04/12 07:41:29;;;;;;;6.82;1.83;;;5.90;68.20;;;;;;4088079;28;20031;-81
2022/04/12 07:43:30;;;;;;;7.72;1.88;;;6.00;67.90;;;;;;4093780;29;20030;-82
2022/04/12 07:45:31;;;;;;;8.23;2.10;;;5.90;67.60;;;;;;4094971;29;20114;-81
2022/04/12 07:47:35;;;;;;;6.00;1.67;;;6.00;68.50;;;;;;4106886;28;20082;-82
2022/04/12 07:49:35;;;;;;;12.18;1.83;;;6.00;67.30;;;;;;4095507;28;20242;-83
2022/04/12 07:51:37;;;;;;;12.35;2.08;;;6.10;67.30;;;;;;4096312;28;20027;-82
2022/04/12 07:53:38;;;;;;;11.32;1.90;;;6.00;67.10;;;;;;4095719;29;20432;-81
2022/04/12 07:55:39;;;;;;;10.60;1.83;;;6.10;67.10;;;;;;4111279;28;20166;-84
2022/04/12 07:57:40;;;;;;;7.65;2.15;;;6.10;66.40;;;;;;4096860;28;20031;-81
2022/04/12 07:59:40;;;;;;;8.52;1.90;;;6.30;66.80;;;;;;4096861;28;20031;-83
2022/04/12 08:01:41;;;;;;;11.73;2.03;;;6.20;66.80;;;;;;4097027;28;20027;-83
2022/04/12 08:03:42;;;;;;;8.25;1.90;;;6.30;66.80;;;;;;4095199;29;20023;-82
2022/04/12 08:05:43;;;;;;;8.50;1.40;;;6.30;66.40;;;;;;4091527;29;20422;-81
2022/04/12 08:07:47;;;;;;;9.63;1.73;;;6.30;66.60;;;;;;4093424;29;20262;-82
2022/04/12 08:09:48;;;;;;;3.33;1.70;;;6.40;66.60;;;;;;4095209;28;20547;-83
2022/04/12 08:11:49;;;;;;;6.78;1.85;;;6.50;66.40;;;;;;4095843;28;20039;-82
2022/04/12 08:13:49;;;;;;;18.50;2.25;;;6.50;66.30;;;;;;4095043;29;20031;-82
2022/04/12 08:15:50;;;;;;;8.00;1.63;;;6.40;65.10;;;;;;4096119;29;20027;-83
2022/04/12 08:17:51;;;;;;;12.93;2.08;;;6.60;65.20;;;;;;4096267;29;20586;-82
2022/04/12 08:19:51;;;;;;;7.53;2.15;;;6.60;65.10;;;;;;4094258;28;20028;-81
2022/04/12 08:21:52;;;;;;;4.88;1.73;;;6.60;65.10;;;;;;4097550;29;20036;-82
2022/04/12 08:23:52;;;;;;;9.02;2.08;;;6.70;65.10;;;;;;4095983;29;20039;-82
2022/04/12 08:25:53;;;;;;;7.72;2.08;;;6.70;64.50;;;;;;4093047;29;20031;-82
2022/04/12 08:27:55;;;;;;;4.72;1.60;;;6.70;64.00;;;;;;4096718;28;20070;-82
2022/04/12 08:29:56;;;;;;;9.32;1.88;;;6.70;64.00;;;;;;4096588;28;20023;-83
2022/04/12 08:31:57;;;;;;;10.95;2.00;;;6.70;63.70;;;;;;4095217;28;20033;-83
2022/04/12 08:33:57;;;;;;;6.78;1.58;;;6.80;63.90;;;;;;4096494;28;20534;-82
2022/04/12 08:35:58;;;;;;;11.25;2.40;;;6.90;64.20;;;;;;4093730;28;20019;-83
2022/04/12 08:37:59;;;;;;;9.57;2.28;;;6.90;63.40;;;;;;4093794;29;20089;-82
2022/04/12 08:39:59;;;;;;;6.78;1.85;;;6.90;64.30;;;;;;4093427;28;20400;-83
2022/04/12 08:42:01;;;;;;;9.77;2.08;;;6.90;63.80;;;;;;4093865;29;20568;-82
2022/04/12 08:44:01;;;;;;;8.57;2.47;;;6.90;63.70;;;;;;4108290;28;20484;-83
2022/04/12 08:46:03;;;;;;;7.93;1.92;;;6.90;63.30;;;;;;4094139;29;20118;-84
2022/04/12 08:48:05;;;;;;;10.50;2.25;;;6.90;62.90;;;;;;4080530;29;20031;-83
2022/04/12 08:50:08;;;;;;;7.53;2.33;;;6.90;63.00;;;;;;4074451;29;20027;-83
2022/04/12 08:52:11;;;;;;;10.15;2.00;;;7.00;63.20;;;;;;4110063;28;20031;-83
2022/04/12 08:54:12;;;;;;;8.15;2.22;;;7.00;63.20;;;;;;4095405;28;20230;-83
2022/04/12 08:56:12;;;;;;;8.73;2.10;;;7.10;62.70;;;;;;4095151;28;20094;-83
2022/04/12 08:58:13;;;;;;;7.10;2.72;;;7.10;62.60;;;;;;4096313;29;20822;-81
2022/04/12 09:00:14;;;;;;;11.57;2.20;;;7.10;63.00;;;;;;4093569;28;20459;-83
2022/04/12 09:02:15;;;;;;;7.40;2.03;;;7.20;63.10;;;;;;4109608;28;20026;-82
2022/04/12 09:04:15;;;;;;;5.82;1.90;;;7.30;62.90;;;;;;4094190;29;20031;-83
2022/04/12 09:06:16;;;;;;;6.03;2.15;;;7.40;63.00;;;;;;4085711;29;20031;-82
2022/04/12 09:08:28;;;;;;;11.80;2.28;;;7.30;62.80;;;;;;4094944;29;20035;-82
2022/04/12 09:10:36;;;;;;;8.75;1.95;;;7.40;62.10;;;;;;4092516;28;20051;-82
2022/04/12 09:12:36;;;;;;;10.75;2.47;;;7.50;61.70;;;;;;4094462;28;20028;-84
2022/04/12 09:14:47;;;;;;;11.50;2.15;;;7.50;61.50;;;;;;4095422;29;20035;-82
2022/04/12 09:16:48;;;;;;;8.02;2.28;;;7.60;61.00;;;;;;4092921;28;20023;-83
2022/04/12 09:18:49;;;;;;;8.18;2.10;;;7.70;61.10;;;;;;4094912;28;20379;-81
2022/04/12 09:20:52;;;;;;;5.40;2.13;;;7.90;60.80;;;;;;4096155;28;20027;-83
2022/04/12 09:22:52;;;;;;;11.73;2.20;;;7.80;60.10;;;;;;4096001;28;20583;-83
2022/04/12 09:24:55;;;;;;;5.45;1.88;;;7.90;59.90;;;;;;4094905;29;20032;-81
2022/04/12 09:26:56;;;;;;;9.50;2.25;;;8.10;60.40;;;;;;4089248;29;20031;-83
2022/04/12 09:29:00;;;;;;;6.63;1.90;;;8.00;59.50;;;;;;4090058;29;20023;-81
2022/04/12 09:31:00;;;;;;;;;;;8.00;59.40;;;;;;4093404;28;20236;-83
2022/04/12 09:33:01;;;;;;;10.27;2.15;;;8.00;59.50;;;;;;4093995;28;19914;-84
2022/04/12 09:35:02;;;;;;;6.95;2.25;;;8.00;59.00;;;;;;4091993;29;20047;-82
2022/04/12 09:37:15;;;;;;;10.48;2.50;;;8.10;59.60;;;;;;4093536;29;20038;-82
2022/04/12 09:39:19;;;;;;;8.13;2.03;;;8.20;59.80;;;;;;4091488;29;20107;-84
2022/04/12 09:41:23;;;;;;;8.00;2.28;;;8.20;60.10;;;;;;4094277;28;20035;-82
2022/04/12 09:43:24;;;;;;;10.63;2.10;;;8.30;60.00;;;;;;4092413;29;20520;-81
2022/04/12 09:45:30;;;;;;;8.07;2.60;;;8.20;59.40;;;;;;4093899;29;20102;-83
2022/04/12 09:47:32;;;;;;;14.23;2.50;;;8.30;59.70;;;;;;4106438;28;20027;-83
2022/04/12 09:49:44;;;;;;;10.57;1.90;;;8.40;59.80;;;;;;4096034;28;20525;-81
2022/04/12 09:51:48;;;;;;;9.93;2.40;;;8.40;60.00;;;;;;4093831;28;20031;-80
2022/04/12 09:53:50;;;;;;;8.60;2.42;;;8.40;60.40;;;;;;4095419;29;20098;-83
2022/04/12 09:55:52;;;;;;;10.88;3.38;;;8.50;60.70;;;;;;4093319;29;20035;-82
2022/04/12 09:57:52;;;;;;;8.82;2.28;;;8.70;61.10;;;;;;4095698;29;20034;-83
2022/04/12 09:59:55;;;;;;;6.90;2.35;;;8.70;60.30;;;;;;4108157;28;20108;-82
2022/04/12 10:01:56;;;;;;;9.52;2.42;;;8.70;58.90;;;;;;4093984;29;20031;-83
2022/04/12 10:03:59;;;;;;;10.90;3.30;;;8.70;59.80;;;;;;4093841;28;20515;-83
2022/04/12 10:06:01;;;;;;;9.93;2.87;;;8.80;59.40;;;;;;4078418;29;20027;-83
2022/04/12 10:08:04;;;;;;;13.35;2.95;;;8.70;59.00;;;;;;4098570;29;20031;-82
2022/04/12 10:10:05;;;;;;;8.85;2.90;;;8.80;59.30;;;;;;4097773;28;20103;-84
2022/04/12 10:12:08;;;;;;;8.05;2.80;;;8.90;58.60;;;;;;4097369;28;20515;-82
2022/04/12 10:14:10;;;;;;;9.33;2.97;;;8.80;58.70;;;;;;4097721;28;20028;-82
2022/04/12 10:16:15;;;;;;;9.48;3.30;;;8.80;59.50;;;;;;4096937;28;20035;-84
2022/04/12 10:18:20;;;;;;;8.20;2.92;;;8.80;59.00;;;;;;4114001;28;20483;-81
2022/04/12 10:20:22;;;;;;;12.23;2.67;;;8.90;59.90;;;;;;4097915;28;20042;-84
2022/04/12 10:22:26;;;;;;;7.93;2.55;;;9.00;60.00;;;;;;4097645;28;20038;-81
2022/04/12 10:24:27;;;;;;;18.23;3.50;;;9.00;59.20;;;;;;4096964;29;20102;-82
2022/04/12 10:26:29;;;;;;;10.05;3.15;;;9.00;59.20;;;;;;4095523;29;20520;-83
2022/04/12 10:28:31;;;;;;;9.38;3.10;;;9.10;59.10;;;;;;4098537;29;20031;-83
2022/04/12 10:30:32;;;;;;;12.25;2.83;;;9.10;58.90;;;;;;4098286;28;20027;-83
2022/04/12 10:32:33;;;;;;;10.02;2.90;;;9.10;58.70;;;;;;4096127;28;20024;-82
2022/04/12 10:34:33;;;;;;;10.98;3.00;;;9.20;58.70;;;;;;4083305;29;20039;-83
2022/04/12 10:36:54;;;;;;;15.02;3.60;;;9.00;58.70;;;;;;4097864;29;20067;-84
2022/04/12 10:38:56;;;;;;;7.80;3.00;;;8.80;58.60;;;;;;4097974;29;20031;-82
2022/04/12 10:41:09;;;;;;;6.25;2.92;;;8.70;58.80;;;;;;4112746;28;20105;-83